Diamondhead, Mississippi
Current Conditions -  °F | °C
As of 5:50 PM on Thursday 20 Nov 2014 (Local Time) from KHSA Reporting Station
Clear Clear  
Wind Chill: 54°   Ceiling: Unl
Heat Index: 54°   Visibility: 10mi
Dew Point: 37°   Wind: 0mph
Humidity: 54%   Direction: NA
Pressure: 30.22"   Gusts: NA
Location:  30.38°N, 89.37°W
Report Text: KHSA 202350Z 00000KT 10SM CLR 12/03 A3022
Loading
Personal Weather Stations






























Interactive Weather Map New forecast layout! Learn more

10-Day Weather Forecast

Advertisements
Track Severe Weather on mobile